Terminal Aerodrome Forecast
Issued by NWS Wilmington, OH

Current Version | Previous Version | Graphics & Text | Print | Product List | Glossary On
Versions: 1 2 3 4 5 6 7 8 9 10 11 12 13 14 15 16
000
FTUS41 KILN 150500
TAFDAY
TAF
KDAY 150523Z 1506/1606 34014G24KT 1SM -SN OVC006
     FM150900 33014G22KT 4SM -SN OVC006
     FM151100 33014G22KT P6SM OVC008
     FM151400 32014G22KT P6SM BKN015
     FM151800 32014G22KT P6SM BKN035
     FM152300 32005KT P6SM SKC=

USA.gov is the U.S. government's official web portal to all federal, state and local government web resources and services.